EWG3UC EDDK-LDZA
Flight info
| Callsign | EWG3UC |
|---|---|
| Flight time | 1h 22m |
| Altitude | 35000 |
| Route | KUMIK L603 TESGA DCT ESATI DCT OSBIT DCT TENLO DCT LAMSI DCT LULUD |
| Aircraft | A319/M-SDE3FGHIRWY/LB1 |
Departure
| Time | 2026-04-25 19:21 |
|---|---|
| Airport | Cologne Bonn Airport (EDDK) |
Arrival
| Time | 2026-04-25 20:44 |
|---|---|
| Airport | Zagreb Franjo Tuđman International Airport (LDZA) |
| Time | Latitude | Longitude | Altitude | Speed | Heading |
|---|---|---|---|---|---|
| 2026-04-25 18:38 | 50.87659 | 7.12237 | 232 ft | 0 kts | 52° |
| 2026-04-25 19:06 | 50.87653 | 7.12224 | 233 ft | 3 kts | 52° |
| 2026-04-25 19:07 | 50.87628 | 7.12172 | 234 ft | 3 kts | 62° |
| 2026-04-25 19:07 | 50.87621 | 7.12140 | 232 ft | 3 kts | 91° |
| 2026-04-25 19:08 | 50.87624 | 7.12113 | 232 ft | 0 kts | 117° |
| 2026-04-25 19:10 | 50.87624 | 7.12114 | 232 ft | 1 kts | 117° |
| 2026-04-25 19:11 | 50.87611 | 7.12153 | 234 ft | 6 kts | 117° |
| 2026-04-25 19:11 | 50.87583 | 7.12238 | 234 ft | 11 kts | 118° |
| 2026-04-25 19:11 | 50.87549 | 7.12339 | 233 ft | 9 kts | 117° |
| 2026-04-25 19:11 | 50.87558 | 7.12437 | 232 ft | 8 kts | 40° |
| 2026-04-25 19:12 | 50.87602 | 7.12465 | 232 ft | 8 kts | 16° |
| 2026-04-25 19:12 | 50.87663 | 7.12495 | 232 ft | 10 kts | 19° |
| 2026-04-25 19:12 | 50.87725 | 7.12528 | 232 ft | 9 kts | 19° |
| 2026-04-25 19:12 | 50.87767 | 7.12610 | 232 ft | 11 kts | 77° |
| 2026-04-25 19:13 | 50.87755 | 7.12720 | 234 ft | 11 kts | 134° |
| 2026-04-25 19:13 | 50.87690 | 7.12813 | 232 ft | 14 kts | 137° |
| 2026-04-25 19:13 | 50.87622 | 7.12912 | 232 ft | 10 kts | 137° |
| 2026-04-25 19:13 | 50.87562 | 7.12998 | 232 ft | 11 kts | 137° |
| 2026-04-25 19:14 | 50.87504 | 7.13081 | 232 ft | 12 kts | 137° |
| 2026-04-25 19:14 | 50.87482 | 7.13113 | 232 ft | 13 kts | 137° |
| 2026-04-25 19:14 | 50.87369 | 7.13278 | 232 ft | 14 kts | 137° |
| 2026-04-25 19:14 | 50.87295 | 7.13384 | 232 ft | 15 kts | 137° |
| 2026-04-25 19:15 | 50.87216 | 7.13499 | 235 ft | 15 kts | 137° |
| 2026-04-25 19:15 | 50.87145 | 7.13601 | 238 ft | 14 kts | 137° |
| 2026-04-25 19:15 | 50.87072 | 7.13707 | 241 ft | 14 kts | 137° |
| 2026-04-25 19:15 | 50.86997 | 7.13815 | 244 ft | 15 kts | 137° |
| 2026-04-25 19:16 | 50.86925 | 7.13920 | 250 ft | 13 kts | 137° |
| 2026-04-25 19:16 | 50.86867 | 7.14004 | 255 ft | 11 kts | 137° |
| 2026-04-25 19:16 | 50.86804 | 7.14096 | 255 ft | 15 kts | 137° |
| 2026-04-25 19:16 | 50.86709 | 7.14172 | 257 ft | 16 kts | 138° |
| 2026-04-25 19:17 | 50.86620 | 7.14301 | 261 ft | 20 kts | 137° |
| 2026-04-25 19:17 | 50.86507 | 7.14464 | 265 ft | 22 kts | 137° |
| 2026-04-25 19:17 | 50.86399 | 7.14621 | 272 ft | 20 kts | 137° |
| 2026-04-25 19:17 | 50.86300 | 7.14766 | 278 ft | 19 kts | 137° |
| 2026-04-25 19:18 | 50.86208 | 7.14900 | 283 ft | 18 kts | 138° |
| 2026-04-25 19:18 | 50.86104 | 7.15049 | 287 ft | 21 kts | 137° |
| 2026-04-25 19:18 | 50.85994 | 7.15209 | 293 ft | 22 kts | 137° |
| 2026-04-25 19:18 | 50.85883 | 7.15369 | 297 ft | 22 kts | 137° |
| 2026-04-25 19:19 | 50.85771 | 7.15531 | 301 ft | 22 kts | 137° |
| 2026-04-25 19:19 | 50.85662 | 7.15690 | 303 ft | 21 kts | 137° |
| 2026-04-25 19:19 | 50.85554 | 7.15847 | 306 ft | 21 kts | 137° |
| 2026-04-25 19:19 | 50.85494 | 7.15936 | 308 ft | 14 kts | 129° |
| 2026-04-25 19:20 | 50.85556 | 7.16125 | 308 ft | 17 kts | 47° |
| 2026-04-25 19:20 | 50.85638 | 7.16266 | 308 ft | 16 kts | 47° |
| 2026-04-25 19:20 | 50.85707 | 7.16300 | 308 ft | 7 kts | 320° |
| 2026-04-25 19:20 | 50.85713 | 7.16291 | 308 ft | 1 kts | 317° |
| 2026-04-25 19:21 | 50.85860 | 7.16078 | 305 ft | 66 kts | 317° |
| 2026-04-25 19:21 | 50.87143 | 7.14208 | 390 ft | 164 kts | 316° |
| 2026-04-25 19:21 | 50.87977 | 7.12974 | 1033 ft | 165 kts | 317° |
| 2026-04-25 19:22 | 50.88821 | 7.11758 | 1691 ft | 168 kts | 320° |
| 2026-04-25 19:22 | 50.89929 | 7.10817 | 1906 ft | 197 kts | 345° |
| 2026-04-25 19:22 | 50.92583 | 7.12505 | 3469 ft | 215 kts | 32° |
| 2026-04-25 19:23 | 50.93644 | 7.14211 | 4384 ft | 222 kts | 52° |
| 2026-04-25 19:23 | 50.95196 | 7.19075 | 5546 ft | 265 kts | 60° |
| 2026-04-25 19:23 | 50.96007 | 7.21739 | 6477 ft | 270 kts | 60° |
| 2026-04-25 19:24 | 50.96841 | 7.24443 | 7360 ft | 275 kts | 60° |
| 2026-04-25 19:24 | 50.97699 | 7.27182 | 8241 ft | 280 kts | 59° |
| 2026-04-25 19:24 | 50.99470 | 7.32795 | 9997 ft | 289 kts | 60° |
| 2026-04-25 19:25 | 51.01187 | 7.38942 | 10919 ft | 329 kts | 73° |
| 2026-04-25 19:25 | 51.01497 | 7.42574 | 11514 ft | 343 kts | 87° |
| 2026-04-25 19:25 | 51.01255 | 7.46381 | 12236 ft | 352 kts | 101° |
| 2026-04-25 19:26 | 51.00571 | 7.50154 | 12972 ft | 358 kts | 106° |
| 2026-04-25 19:26 | 50.99808 | 7.53946 | 13707 ft | 364 kts | 106° |
| 2026-04-25 19:26 | 50.99014 | 7.57924 | 14388 ft | 370 kts | 106° |
| 2026-04-25 19:26 | 50.98263 | 7.61721 | 15031 ft | 374 kts | 105° |
| 2026-04-25 19:27 | 50.97486 | 7.65675 | 15710 ft | 377 kts | 105° |
| 2026-04-25 19:27 | 50.97223 | 7.67022 | 15946 ft | 378 kts | 105° |
| 2026-04-25 19:27 | 50.95902 | 7.73698 | 17076 ft | 384 kts | 105° |
| 2026-04-25 19:27 | 50.95098 | 7.77762 | 17755 ft | 388 kts | 105° |
| 2026-04-25 19:28 | 50.94157 | 7.81798 | 18424 ft | 393 kts | 114° |
| 2026-04-25 19:28 | 50.92795 | 7.85582 | 19004 ft | 398 kts | 122° |
| 2026-04-25 19:28 | 50.91253 | 7.89245 | 19579 ft | 401 kts | 123° |
| 2026-04-25 19:28 | 50.89709 | 7.92901 | 20155 ft | 405 kts | 123° |
| 2026-04-25 19:29 | 50.88142 | 7.96627 | 20724 ft | 409 kts | 123° |
| 2026-04-25 19:29 | 50.86558 | 8.00396 | 21274 ft | 413 kts | 123° |
| 2026-04-25 19:29 | 50.84906 | 8.04139 | 21819 ft | 418 kts | 130° |
| 2026-04-25 19:29 | 50.82812 | 8.07391 | 22360 ft | 422 kts | 138° |
| 2026-04-25 19:30 | 50.80623 | 8.10478 | 22898 ft | 426 kts | 138° |
| 2026-04-25 19:30 | 50.78410 | 8.13627 | 23446 ft | 429 kts | 138° |
| 2026-04-25 19:30 | 50.76183 | 8.16808 | 23937 ft | 433 kts | 138° |
| 2026-04-25 19:30 | 50.73950 | 8.20025 | 24382 ft | 436 kts | 138° |
| 2026-04-25 19:31 | 50.71697 | 8.23263 | 24836 ft | 439 kts | 138° |
| 2026-04-25 19:31 | 50.69426 | 8.26516 | 25284 ft | 442 kts | 138° |
| 2026-04-25 19:31 | 50.67135 | 8.29780 | 25727 ft | 445 kts | 138° |
| 2026-04-25 19:31 | 50.64836 | 8.33052 | 26163 ft | 448 kts | 138° |
| 2026-04-25 19:32 | 50.62513 | 8.36356 | 26603 ft | 450 kts | 138° |
| 2026-04-25 19:32 | 50.60181 | 8.39680 | 27028 ft | 453 kts | 138° |
| 2026-04-25 19:32 | 50.57838 | 8.43015 | 27466 ft | 456 kts | 138° |
| 2026-04-25 19:32 | 50.57074 | 8.44101 | 27588 ft | 457 kts | 138° |
| 2026-04-25 19:33 | 50.53116 | 8.49697 | 28274 ft | 462 kts | 138° |
| 2026-04-25 19:33 | 50.50718 | 8.53096 | 28691 ft | 465 kts | 138° |
| 2026-04-25 19:33 | 50.48303 | 8.56508 | 29089 ft | 468 kts | 138° |
| 2026-04-25 19:33 | 50.45872 | 8.59935 | 29482 ft | 471 kts | 138° |
| 2026-04-25 19:34 | 50.43439 | 8.63407 | 29879 ft | 475 kts | 136° |
| 2026-04-25 19:34 | 50.41066 | 8.67029 | 30249 ft | 477 kts | 136° |
| 2026-04-25 19:34 | 50.38672 | 8.70664 | 30569 ft | 480 kts | 136° |
| 2026-04-25 19:34 | 50.36260 | 8.74303 | 30899 ft | 482 kts | 136° |
| 2026-04-25 19:35 | 50.34658 | 8.76712 | 31110 ft | 483 kts | 136° |
| 2026-04-25 19:35 | 50.32224 | 8.80362 | 31442 ft | 485 kts | 136° |
| 2026-04-25 19:35 | 50.29786 | 8.84030 | 31815 ft | 485 kts | 136° |
| 2026-04-25 19:35 | 50.27367 | 8.87671 | 32337 ft | 481 kts | 136° |
| 2026-04-25 19:36 | 50.24957 | 8.91284 | 32829 ft | 479 kts | 136° |
| 2026-04-25 19:36 | 50.22545 | 8.94872 | 33305 ft | 477 kts | 137° |
| 2026-04-25 19:36 | 50.20149 | 8.98449 | 33772 ft | 476 kts | 137° |
| 2026-04-25 19:36 | 50.17759 | 9.02008 | 34226 ft | 474 kts | 137° |
| 2026-04-25 19:37 | 50.15373 | 9.05549 | 34624 ft | 473 kts | 137° |
| 2026-04-25 19:37 | 50.12992 | 9.09083 | 34994 ft | 471 kts | 137° |
| 2026-04-25 19:37 | 50.10626 | 9.12592 | 35130 ft | 468 kts | 137° |
| 2026-04-25 19:37 | 50.08314 | 9.16151 | 35154 ft | 467 kts | 133° |
| 2026-04-25 19:38 | 50.06285 | 9.20094 | 35134 ft | 466 kts | 122° |
| 2026-04-25 19:38 | 50.04719 | 9.24498 | 35129 ft | 465 kts | 113° |
| 2026-04-25 19:38 | 50.02175 | 9.33753 | 35133 ft | 465 kts | 112° |
| 2026-04-25 19:39 | 49.99618 | 9.42912 | 35134 ft | 465 kts | 112° |
| 2026-04-25 19:39 | 49.97023 | 9.52110 | 35132 ft | 465 kts | 112° |
| 2026-04-25 19:40 | 49.94417 | 9.61310 | 35141 ft | 465 kts | 112° |
| 2026-04-25 19:40 | 49.91809 | 9.70508 | 35129 ft | 466 kts | 112° |
| 2026-04-25 19:41 | 49.89181 | 9.79700 | 35134 ft | 466 kts | 112° |
| 2026-04-25 19:41 | 49.86994 | 9.87354 | 35131 ft | 467 kts | 112° |
| 2026-04-25 19:42 | 49.83904 | 9.98107 | 35129 ft | 467 kts | 112° |
| 2026-04-25 19:42 | 49.81252 | 10.07278 | 35133 ft | 467 kts | 112° |
| 2026-04-25 19:43 | 49.78597 | 10.16472 | 35132 ft | 468 kts | 112° |
| 2026-04-25 19:43 | 49.75927 | 10.25658 | 35125 ft | 468 kts | 112° |
| 2026-04-25 19:44 | 49.73267 | 10.34852 | 35121 ft | 468 kts | 112° |
| 2026-04-25 19:44 | 49.70568 | 10.44009 | 35125 ft | 468 kts | 113° |
| 2026-04-25 19:45 | 49.67892 | 10.53097 | 35123 ft | 468 kts | 113° |
| 2026-04-25 19:45 | 49.65194 | 10.62231 | 35126 ft | 468 kts | 113° |
| 2026-04-25 19:46 | 49.62493 | 10.71365 | 35124 ft | 468 kts | 113° |
| 2026-04-25 19:46 | 49.59785 | 10.80491 | 35124 ft | 468 kts | 113° |
| 2026-04-25 19:47 | 49.57061 | 10.89612 | 35132 ft | 468 kts | 113° |
| 2026-04-25 19:47 | 49.54321 | 10.98718 | 35126 ft | 469 kts | 113° |
| 2026-04-25 19:48 | 49.51532 | 11.07793 | 35122 ft | 469 kts | 115° |
| 2026-04-25 19:48 | 49.48586 | 11.16747 | 35123 ft | 469 kts | 115° |
| 2026-04-25 19:49 | 49.46133 | 11.24189 | 35135 ft | 469 kts | 115° |
| 2026-04-25 19:49 | 49.42677 | 11.34652 | 35115 ft | 470 kts | 115° |
| 2026-04-25 19:50 | 49.38234 | 11.48024 | 35107 ft | 470 kts | 115° |
| 2026-04-25 19:51 | 49.35262 | 11.56970 | 35113 ft | 470 kts | 116° |
| 2026-04-25 19:51 | 49.32285 | 11.65887 | 35121 ft | 469 kts | 116° |
| 2026-04-25 19:52 | 49.29297 | 11.74782 | 35118 ft | 469 kts | 116° |
| 2026-04-25 19:52 | 49.26293 | 11.83669 | 35112 ft | 470 kts | 116° |
| 2026-04-25 19:53 | 49.23318 | 11.92508 | 35111 ft | 470 kts | 116° |
| 2026-04-25 19:53 | 49.20283 | 12.01444 | 35104 ft | 470 kts | 116° |
| 2026-04-25 19:54 | 49.17281 | 12.10254 | 35111 ft | 470 kts | 116° |
| 2026-04-25 19:54 | 49.14255 | 12.19113 | 35105 ft | 470 kts | 116° |
| 2026-04-25 19:55 | 49.11229 | 12.27976 | 35092 ft | 471 kts | 116° |
| 2026-04-25 19:55 | 49.08188 | 12.36820 | 35086 ft | 471 kts | 116° |
| 2026-04-25 19:56 | 49.05132 | 12.45644 | 35097 ft | 470 kts | 116° |
| 2026-04-25 19:56 | 49.02080 | 12.54457 | 35097 ft | 469 kts | 116° |
| 2026-04-25 19:57 | 48.99041 | 12.63245 | 35089 ft | 469 kts | 117° |
| 2026-04-25 19:57 | 48.95986 | 12.72007 | 35086 ft | 468 kts | 117° |
| 2026-04-25 19:58 | 48.92922 | 12.80756 | 35083 ft | 468 kts | 117° |
| 2026-04-25 19:58 | 48.89799 | 12.89451 | 35070 ft | 469 kts | 124° |
| 2026-04-25 19:58 | 48.87652 | 12.93151 | 35068 ft | 468 kts | 141° |
| 2026-04-25 19:59 | 48.84991 | 12.95989 | 35074 ft | 467 kts | 149° |
| 2026-04-25 19:59 | 48.79521 | 13.01197 | 35071 ft | 467 kts | 149° |
| 2026-04-25 20:00 | 48.74042 | 13.06497 | 35075 ft | 467 kts | 148° |
| 2026-04-25 20:00 | 48.68557 | 13.11773 | 35084 ft | 467 kts | 148° |
| 2026-04-25 20:01 | 48.60335 | 13.19666 | 35087 ft | 466 kts | 149° |
| 2026-04-25 20:01 | 48.54543 | 13.23839 | 35077 ft | 461 kts | 167° |
| 2026-04-25 20:02 | 48.51514 | 13.25454 | 35052 ft | 463 kts | 154° |
| 2026-04-25 20:02 | 48.48729 | 13.27905 | 35067 ft | 464 kts | 148° |
| 2026-04-25 20:02 | 48.43311 | 13.33202 | 35077 ft | 464 kts | 148° |
| 2026-04-25 20:03 | 48.37865 | 13.38422 | 35083 ft | 464 kts | 148° |
| 2026-04-25 20:03 | 48.32428 | 13.43649 | 35087 ft | 463 kts | 148° |
| 2026-04-25 20:04 | 48.26992 | 13.48841 | 35082 ft | 462 kts | 148° |
| 2026-04-25 20:04 | 48.21560 | 13.54013 | 35089 ft | 461 kts | 148° |
| 2026-04-25 20:05 | 48.16188 | 13.59154 | 35089 ft | 461 kts | 148° |
| 2026-04-25 20:05 | 48.10768 | 13.64277 | 35084 ft | 460 kts | 148° |
| 2026-04-25 20:06 | 48.05354 | 13.69400 | 35091 ft | 460 kts | 148° |
| 2026-04-25 20:06 | 47.99938 | 13.74514 | 35090 ft | 460 kts | 148° |
| 2026-04-25 20:07 | 47.94529 | 13.79613 | 35096 ft | 459 kts | 148° |
| 2026-04-25 20:07 | 47.89129 | 13.84684 | 35093 ft | 459 kts | 148° |
| 2026-04-25 20:08 | 47.83724 | 13.89744 | 35087 ft | 458 kts | 148° |
| 2026-04-25 20:08 | 47.78318 | 13.94797 | 35076 ft | 458 kts | 148° |
| 2026-04-25 20:09 | 47.72918 | 13.99831 | 35085 ft | 457 kts | 148° |
| 2026-04-25 20:09 | 47.67536 | 14.04857 | 35095 ft | 457 kts | 148° |
| 2026-04-25 20:10 | 47.62145 | 14.09835 | 35090 ft | 456 kts | 148° |
| 2026-04-25 20:10 | 47.56803 | 14.14802 | 35037 ft | 454 kts | 149° |
| 2026-04-25 20:11 | 47.54125 | 14.17267 | 34729 ft | 450 kts | 148° |
| 2026-04-25 20:11 | 47.51484 | 14.19714 | 34486 ft | 446 kts | 148° |
| 2026-04-25 20:11 | 47.48857 | 14.22137 | 34248 ft | 444 kts | 148° |
| 2026-04-25 20:11 | 47.46234 | 14.24539 | 34002 ft | 442 kts | 148° |
| 2026-04-25 20:12 | 47.43624 | 14.26926 | 33730 ft | 440 kts | 148° |
| 2026-04-25 20:12 | 47.41034 | 14.29309 | 33463 ft | 438 kts | 148° |
| 2026-04-25 20:12 | 47.38455 | 14.31687 | 33189 ft | 435 kts | 149° |
| 2026-04-25 20:12 | 47.37589 | 14.32484 | 33098 ft | 434 kts | 149° |
| 2026-04-25 20:13 | 47.33340 | 14.36365 | 32656 ft | 431 kts | 149° |
| 2026-04-25 20:13 | 47.30797 | 14.38684 | 32383 ft | 429 kts | 150° |
| 2026-04-25 20:13 | 47.28266 | 14.40988 | 32123 ft | 426 kts | 150° |
| 2026-04-25 20:13 | 47.25748 | 14.43285 | 31859 ft | 424 kts | 150° |
| 2026-04-25 20:14 | 47.23246 | 14.45571 | 31610 ft | 422 kts | 150° |
| 2026-04-25 20:14 | 47.20754 | 14.47846 | 31360 ft | 420 kts | 150° |
| 2026-04-25 20:14 | 47.18270 | 14.50100 | 31106 ft | 418 kts | 150° |
| 2026-04-25 20:14 | 47.15832 | 14.52322 | 30862 ft | 417 kts | 150° |
| 2026-04-25 20:15 | 47.13368 | 14.54546 | 30617 ft | 415 kts | 150° |
| 2026-04-25 20:15 | 47.10922 | 14.56766 | 30372 ft | 412 kts | 152° |
| 2026-04-25 20:15 | 47.08485 | 14.58970 | 30111 ft | 409 kts | 152° |
| 2026-04-25 20:15 | 47.06071 | 14.61156 | 29816 ft | 406 kts | 153° |
| 2026-04-25 20:16 | 47.03677 | 14.63318 | 29549 ft | 403 kts | 153° |
| 2026-04-25 20:16 | 47.01298 | 14.65466 | 29249 ft | 400 kts | 152° |
| 2026-04-25 20:16 | 46.98935 | 14.67602 | 29036 ft | 398 kts | 153° |
| 2026-04-25 20:16 | 46.96571 | 14.69719 | 29027 ft | 398 kts | 153° |
| 2026-04-25 20:17 | 46.91837 | 14.73964 | 29020 ft | 399 kts | 153° |
| 2026-04-25 20:17 | 46.87910 | 14.77503 | 29021 ft | 399 kts | 152° |
| 2026-04-25 20:18 | 46.82401 | 14.82430 | 29005 ft | 399 kts | 153° |
| 2026-04-25 20:18 | 46.78428 | 14.85978 | 29019 ft | 400 kts | 153° |
| 2026-04-25 20:19 | 46.73698 | 14.90203 | 28108 ft | 399 kts | 153° |
| 2026-04-25 20:19 | 46.71340 | 14.92286 | 27095 ft | 404 kts | 153° |
| 2026-04-25 20:19 | 46.68938 | 14.94424 | 26146 ft | 406 kts | 152° |
| 2026-04-25 20:20 | 46.66527 | 14.96567 | 25365 ft | 404 kts | 152° |
| 2026-04-25 20:20 | 46.64132 | 14.98689 | 24673 ft | 401 kts | 152° |
| 2026-04-25 20:20 | 46.61759 | 15.00794 | 23992 ft | 397 kts | 152° |
| 2026-04-25 20:20 | 46.59406 | 15.02875 | 23259 ft | 394 kts | 151° |
| 2026-04-25 20:21 | 46.57075 | 15.04936 | 22468 ft | 389 kts | 152° |
| 2026-04-25 20:21 | 46.54772 | 15.06969 | 21712 ft | 385 kts | 152° |
| 2026-04-25 20:21 | 46.52497 | 15.08980 | 21098 ft | 380 kts | 151° |
| 2026-04-25 20:21 | 46.50253 | 15.10963 | 20738 ft | 375 kts | 152° |
| 2026-04-25 20:22 | 46.48033 | 15.12913 | 20358 ft | 371 kts | 152° |
| 2026-04-25 20:22 | 46.46575 | 15.14193 | 20103 ft | 368 kts | 151° |
| 2026-04-25 20:22 | 46.43668 | 15.16753 | 19599 ft | 363 kts | 151° |
| 2026-04-25 20:22 | 46.41516 | 15.18645 | 19226 ft | 360 kts | 151° |
| 2026-04-25 20:23 | 46.39386 | 15.20514 | 18853 ft | 356 kts | 151° |
| 2026-04-25 20:23 | 46.37298 | 15.22350 | 18493 ft | 354 kts | 151° |
| 2026-04-25 20:23 | 46.35171 | 15.24209 | 18092 ft | 351 kts | 151° |
| 2026-04-25 20:23 | 46.33097 | 15.26030 | 17721 ft | 347 kts | 151° |
| 2026-04-25 20:24 | 46.31045 | 15.27834 | 17370 ft | 343 kts | 151° |
| 2026-04-25 20:24 | 46.29012 | 15.29611 | 17001 ft | 339 kts | 151° |
| 2026-04-25 20:24 | 46.27029 | 15.31342 | 16650 ft | 336 kts | 151° |
| 2026-04-25 20:24 | 46.25036 | 15.33075 | 16306 ft | 333 kts | 151° |
| 2026-04-25 20:25 | 46.23055 | 15.34793 | 15940 ft | 331 kts | 151° |
| 2026-04-25 20:25 | 46.21086 | 15.36506 | 15583 ft | 329 kts | 150° |
| 2026-04-25 20:25 | 46.19127 | 15.38214 | 15238 ft | 328 kts | 150° |
| 2026-04-25 20:25 | 46.17174 | 15.39912 | 14882 ft | 327 kts | 150° |
| 2026-04-25 20:26 | 46.15232 | 15.41601 | 14531 ft | 325 kts | 150° |
| 2026-04-25 20:26 | 46.13298 | 15.43279 | 14176 ft | 324 kts | 150° |
| 2026-04-25 20:26 | 46.11370 | 15.44955 | 13805 ft | 322 kts | 150° |
| 2026-04-25 20:26 | 46.09452 | 15.46620 | 13435 ft | 321 kts | 150° |
| 2026-04-25 20:27 | 46.07546 | 15.48264 | 13086 ft | 318 kts | 150° |
| 2026-04-25 20:27 | 46.05655 | 15.49896 | 12736 ft | 316 kts | 150° |
| 2026-04-25 20:27 | 46.03777 | 15.51527 | 12388 ft | 313 kts | 149° |
| 2026-04-25 20:27 | 46.01916 | 15.53134 | 12044 ft | 311 kts | 149° |
| 2026-04-25 20:28 | 46.00064 | 15.54728 | 11696 ft | 309 kts | 149° |
| 2026-04-25 20:28 | 45.98222 | 15.56321 | 11347 ft | 308 kts | 149° |
| 2026-04-25 20:28 | 45.96390 | 15.57900 | 11010 ft | 306 kts | 149° |
| 2026-04-25 20:28 | 45.94568 | 15.59468 | 10757 ft | 304 kts | 149° |
| 2026-04-25 20:29 | 45.92757 | 15.61028 | 10439 ft | 303 kts | 149° |
| 2026-04-25 20:29 | 45.90956 | 15.62580 | 10099 ft | 302 kts | 149° |
| 2026-04-25 20:29 | 45.89161 | 15.64123 | 9766 ft | 299 kts | 147° |
| 2026-04-25 20:29 | 45.87658 | 15.66086 | 9398 ft | 297 kts | 126° |
| 2026-04-25 20:30 | 45.86444 | 15.68470 | 9032 ft | 295 kts | 125° |
| 2026-04-25 20:30 | 45.85257 | 15.70854 | 8707 ft | 292 kts | 125° |
| 2026-04-25 20:30 | 45.84086 | 15.73225 | 8374 ft | 290 kts | 125° |
| 2026-04-25 20:30 | 45.82929 | 15.75581 | 8090 ft | 287 kts | 125° |
| 2026-04-25 20:31 | 45.81784 | 15.77925 | 8030 ft | 287 kts | 125° |
| 2026-04-25 20:31 | 45.80639 | 15.80275 | 8024 ft | 287 kts | 125° |
| 2026-04-25 20:31 | 45.79491 | 15.82631 | 7999 ft | 289 kts | 125° |
| 2026-04-25 20:31 | 45.78346 | 15.84987 | 7741 ft | 287 kts | 125° |
| 2026-04-25 20:32 | 45.77211 | 15.87324 | 7490 ft | 285 kts | 125° |
| 2026-04-25 20:32 | 45.76086 | 15.89653 | 7242 ft | 283 kts | 125° |
| 2026-04-25 20:32 | 45.74963 | 15.91962 | 6996 ft | 282 kts | 125° |
| 2026-04-25 20:32 | 45.73846 | 15.94260 | 6753 ft | 281 kts | 125° |
| 2026-04-25 20:33 | 45.72734 | 15.96550 | 6511 ft | 279 kts | 125° |
| 2026-04-25 20:33 | 45.71628 | 15.98834 | 6265 ft | 278 kts | 125° |
| 2026-04-25 20:33 | 45.70529 | 16.01108 | 6052 ft | 277 kts | 125° |
| 2026-04-25 20:33 | 45.69802 | 16.02614 | 6005 ft | 277 kts | 125° |
| 2026-04-25 20:34 | 45.68351 | 16.05620 | 6002 ft | 278 kts | 125° |
| 2026-04-25 20:34 | 45.67252 | 16.07893 | 6001 ft | 278 kts | 126° |
| 2026-04-25 20:34 | 45.65894 | 16.09827 | 5999 ft | 276 kts | 150° |
| 2026-04-25 20:34 | 45.64088 | 16.10664 | 6001 ft | 275 kts | 178° |
| 2026-04-25 20:35 | 45.62259 | 16.10221 | 5998 ft | 261 kts | 206° |
| 2026-04-25 20:35 | 45.60768 | 16.08891 | 5996 ft | 246 kts | 215° |
| 2026-04-25 20:35 | 45.59378 | 16.07524 | 5996 ft | 241 kts | 215° |
| 2026-04-25 20:35 | 45.57996 | 16.06165 | 6005 ft | 240 kts | 215° |
| 2026-04-25 20:36 | 45.56621 | 16.04813 | 6005 ft | 240 kts | 215° |
| 2026-04-25 20:36 | 45.55246 | 16.03462 | 6005 ft | 240 kts | 215° |
| 2026-04-25 20:36 | 45.53895 | 16.02063 | 6004 ft | 240 kts | 225° |
| 2026-04-25 20:36 | 45.53035 | 16.00066 | 6000 ft | 239 kts | 255° |
| 2026-04-25 20:37 | 45.52996 | 15.97706 | 5717 ft | 240 kts | 283° |
| 2026-04-25 20:37 | 45.53421 | 15.95440 | 5424 ft | 239 kts | 285° |
| 2026-04-25 20:37 | 45.53870 | 15.93161 | 5128 ft | 239 kts | 285° |
| 2026-04-25 20:37 | 45.54322 | 15.90887 | 4837 ft | 238 kts | 285° |
| 2026-04-25 20:38 | 45.54776 | 15.88621 | 4533 ft | 237 kts | 285° |
| 2026-04-25 20:38 | 45.55243 | 15.86375 | 4214 ft | 234 kts | 291° |
| 2026-04-25 20:38 | 45.56200 | 15.84575 | 3915 ft | 229 kts | 326° |
| 2026-04-25 20:38 | 45.57678 | 15.83927 | 3619 ft | 223 kts | 0° |
| 2026-04-25 20:39 | 45.59149 | 15.84452 | 3334 ft | 217 kts | 27° |
| 2026-04-25 20:39 | 45.60325 | 15.85749 | 3071 ft | 211 kts | 44° |
| 2026-04-25 20:39 | 45.61308 | 15.87220 | 3076 ft | 206 kts | 45° |
| 2026-04-25 20:39 | 45.61975 | 15.88221 | 3010 ft | 212 kts | 45° |
| 2026-04-25 20:40 | 45.63314 | 15.90244 | 2986 ft | 202 kts | 45° |
| 2026-04-25 20:40 | 45.64262 | 15.91686 | 2882 ft | 198 kts | 45° |
| 2026-04-25 20:40 | 45.65184 | 15.93125 | 2620 ft | 194 kts | 44° |
| 2026-04-25 20:40 | 45.66124 | 15.94498 | 2382 ft | 192 kts | 42° |
| 2026-04-25 20:41 | 45.67068 | 15.95829 | 2070 ft | 186 kts | 42° |
| 2026-04-25 20:41 | 45.67905 | 15.97129 | 1898 ft | 171 kts | 47° |
| 2026-04-25 20:41 | 45.68665 | 15.98375 | 1637 ft | 160 kts | 45° |
| 2026-04-25 20:41 | 45.69397 | 15.99465 | 1404 ft | 146 kts | 41° |
| 2026-04-25 20:42 | 45.70090 | 16.00470 | 1205 ft | 139 kts | 45° |
| 2026-04-25 20:42 | 45.70738 | 16.01478 | 1048 ft | 136 kts | 47° |
| 2026-04-25 20:42 | 45.71367 | 16.02446 | 920 ft | 133 kts | 46° |
| 2026-04-25 20:42 | 45.72014 | 16.03412 | 756 ft | 131 kts | 46° |
| 2026-04-25 20:43 | 45.72632 | 16.04345 | 573 ft | 130 kts | 47° |
| 2026-04-25 20:43 | 45.73246 | 16.05283 | 410 ft | 129 kts | 47° |
| 2026-04-25 20:43 | 45.73802 | 16.06134 | 361 ft | 88 kts | 46° |
| 2026-04-25 20:43 | 45.74106 | 16.06596 | 360 ft | 56 kts | 46° |
| 2026-04-25 20:44 | 45.74358 | 16.06979 | 358 ft | 50 kts | 47° |
| 2026-04-25 20:44 | 45.74585 | 16.07323 | 357 ft | 43 kts | 46° |
| 2026-04-25 20:44 | 45.74675 | 16.07511 | 357 ft | 15 kts | 110° |
| 2026-04-25 20:44 | 45.74615 | 16.07597 | 358 ft | 4 kts | 137° |
| 2026-04-25 20:45 | 45.74599 | 16.07618 | 359 ft | 0 kts | 137° |
| 2026-04-25 20:45 | 45.74595 | 16.07623 | 359 ft | 3 kts | 137° |
| 2026-04-25 20:45 | 45.74567 | 16.07660 | 365 ft | 9 kts | 137° |
| 2026-04-25 20:46 | 45.74503 | 16.07747 | 359 ft | 15 kts | 136° |
| 2026-04-25 20:46 | 45.74426 | 16.07850 | 359 ft | 13 kts | 137° |
| 2026-04-25 20:46 | 45.74363 | 16.07907 | 360 ft | 11 kts | 180° |
| 2026-04-25 20:46 | 45.74299 | 16.07829 | 361 ft | 13 kts | 227° |
| 2026-04-25 20:47 | 45.74254 | 16.07811 | 359 ft | 5 kts | 147° |
| 2026-04-25 20:47 | 45.74228 | 16.07846 | 358 ft | 5 kts | 137° |
| 2026-04-25 20:47 | 45.74211 | 16.07869 | 362 ft | 2 kts | 137° |
| 2026-04-25 20:47 | 45.74206 | 16.07876 | 359 ft | 0 kts | 137° |